createdAt,value
2023-03-06T00:04:22.364Z,77.26
2023-03-06T00:14:27.752Z,77.35
2023-03-06T00:24:33.336Z,77.02
2023-03-06T00:34:38.867Z,76.76
2023-03-06T00:44:44.526Z,77.52
2023-03-06T00:54:50.025Z,76.82
2023-03-06T01:04:55.435Z,76.50
2023-03-06T01:15:00.912Z,76.18
2023-03-06T01:25:06.466Z,76.51
2023-03-06T01:35:11.880Z,76.69
2023-03-06T01:45:17.536Z,76.92
2023-03-06T01:55:22.881Z,77.79
2023-03-06T02:05:28.399Z,78.12
2023-03-06T02:15:33.909Z,77.46
2023-03-06T02:25:39.549Z,76.71
2023-03-06T02:35:45.071Z,75.73
2023-03-06T02:45:50.533Z,75.48
2023-03-06T02:55:56.063Z,75.36
2023-03-06T03:06:01.440Z,75.18
2023-03-06T03:16:07.216Z,75.05
2023-03-06T03:26:12.916Z,75.13
2023-03-06T03:36:18.418Z,75.44
2023-03-06T03:46:24.287Z,75.53
2023-03-06T03:56:30.227Z,75.51
2023-03-06T04:06:35.531Z,75.46
2023-03-06T04:16:40.956Z,75.30
2023-03-06T04:26:46.595Z,75.18
2023-03-06T04:36:52.323Z,75.61
2023-03-06T04:46:58.063Z,75.98
2023-03-06T04:57:03.857Z,75.86
2023-03-06T05:07:09.726Z,75.85
2023-03-06T05:17:15.692Z,76.32
2023-03-06T05:27:21.283Z,76.27
2023-03-06T05:37:26.816Z,76.02
2023-03-06T05:47:32.625Z,75.78
2023-03-06T05:57:38.215Z,75.57
2023-03-06T06:07:43.880Z,76.18
2023-03-06T06:17:49.744Z,76.24
2023-03-06T06:27:55.448Z,76.17
2023-03-06T06:38:00.928Z,76.35
2023-03-06T06:48:06.795Z,75.33
2023-03-06T06:58:12.475Z,75.17
2023-03-06T07:08:18.122Z,75.24
2023-03-06T07:18:24.081Z,75.24
2023-03-06T07:28:33.698Z,75.09
2023-03-06T07:38:40.849Z,74.94
2023-03-06T07:48:47.148Z,74.74
2023-03-06T07:58:52.678Z,74.43
2023-03-06T08:08:58.894Z,74.47
2023-03-06T08:19:04.449Z,74.40
2023-03-06T08:29:09.966Z,74.41
2023-03-06T08:39:15.686Z,74.51
2023-03-06T08:49:21.220Z,74.90
2023-03-06T08:59:26.785Z,75.08
2023-03-06T09:09:33.120Z,75.33
2023-03-06T09:19:38.553Z,75.42
2023-03-06T09:29:44.143Z,75.91
2023-03-06T09:39:49.632Z,74.61
2023-03-06T09:49:55.808Z,74.50
2023-03-06T10:00:04.323Z,74.30
2023-03-06T10:10:10.313Z,72.17
2023-03-06T10:20:16.293Z,67.61
2023-03-06T10:30:21.926Z,57.92
2023-03-06T10:40:27.785Z,64.78
2023-03-06T10:50:34.015Z,66.42
2023-03-06T11:00:41.023Z,67.31
2023-03-06T11:10:47.028Z,67.77
2023-03-06T11:20:53.118Z,63.86
2023-03-06T11:30:57.905Z,67.39
2023-03-06T11:41:05.692Z,66.44
2023-03-06T11:51:12.115Z,67.50
2023-03-06T12:01:17.898Z,67.33
2023-03-06T12:11:23.639Z,64.65
2023-03-06T12:21:29.405Z,64.79
2023-03-06T12:31:35.465Z,65.30
2023-03-06T12:41:41.752Z,65.70
2023-03-06T12:51:47.519Z,66.09
2023-03-06T13:01:53.447Z,66.35
2023-03-06T13:11:58.576Z,66.66
2023-03-06T13:22:04.059Z,67.00
2023-03-06T13:32:09.819Z,67.20
2023-03-06T13:42:15.378Z,67.36
2023-03-06T13:52:20.553Z,67.47
2023-03-06T14:02:26.295Z,67.57
2023-03-06T14:12:31.881Z,67.62
2023-03-06T14:22:37.350Z,67.60
2023-03-06T14:32:43.162Z,67.97
2023-03-06T14:42:48.558Z,68.48
2023-03-06T14:52:53.986Z,69.62
2023-03-06T15:02:59.649Z,70.08
2023-03-06T15:13:05.394Z,70.19
2023-03-06T15:23:10.954Z,70.35
2023-03-06T15:33:16.568Z,70.50
2023-03-06T15:43:21.422Z,70.48
2023-03-06T15:53:27.092Z,70.66
2023-03-06T16:03:32.137Z,71.03
2023-03-06T16:13:37.501Z,71.56
2023-03-06T16:23:43.152Z,71.23
2023-03-06T16:33:49.044Z,70.22
2023-03-06T16:43:54.415Z,70.27
2023-03-06T16:54:00.036Z,70.20
2023-03-06T17:04:06.389Z,70.19
2023-03-06T17:14:12.361Z,70.23
2023-03-06T17:24:18.067Z,70.22
2023-03-06T17:34:24.708Z,70.05
2023-03-06T17:44:30.503Z,70.37
2023-03-06T17:54:35.972Z,70.64
2023-03-06T18:04:41.639Z,70.79
2023-03-06T18:14:46.784Z,70.89
2023-03-06T18:24:53.171Z,70.74
2023-03-06T18:34:59.061Z,70.77
2023-03-06T18:45:05.154Z,71.14
2023-03-06T18:55:10.624Z,71.38
2023-03-06T19:05:18.343Z,71.51
2023-03-06T19:15:25.428Z,72.08
2023-03-06T19:25:31.164Z,72.44
2023-03-06T19:35:37.336Z,72.45
2023-03-06T19:45:43.516Z,72.62
2023-03-06T19:55:49.053Z,72.68
2023-03-06T20:05:54.666Z,72.55
2023-03-06T20:16:01.797Z,72.42
2023-03-06T20:26:07.711Z,72.89
2023-03-06T20:36:13.568Z,72.67
2023-03-06T20:46:22.030Z,72.50
2023-03-06T20:56:29.527Z,72.57
2023-03-06T21:06:35.494Z,72.42
2023-03-06T21:16:41.413Z,72.31
2023-03-06T21:26:47.044Z,72.54
2023-03-06T21:36:54.611Z,72.99
2023-03-06T21:47:00.139Z,72.84
2023-03-06T21:57:06.617Z,72.55
2023-03-06T22:07:12.045Z,72.46
2023-03-06T22:17:17.605Z,72.42
2023-03-06T22:27:23.637Z,72.75
2023-03-06T22:37:30.075Z,73.46
2023-03-06T22:47:35.590Z,73.53
2023-03-06T22:57:41.295Z,73.50
2023-03-06T23:07:47.329Z,73.61
2023-03-06T23:17:53.246Z,73.79
2023-03-06T23:27:59.121Z,74.07
2023-03-06T23:38:04.957Z,74.24
2023-03-06T23:48:10.606Z,74.52
2023-03-06T23:58:17.040Z,75.39
